sensor_id;sensor_type;location;lat;lon;timestamp;P1;durP1;ratioP1;P2;durP2;ratioP2
9222;SDS011;7557;51.698;3.942;2023-05-10T00:01:02;35.22;;;20.52;;
9222;SDS011;7557;51.698;3.942;2023-05-10T00:03:29;41.00;;;21.27;;
9222;SDS011;7557;51.698;3.942;2023-05-10T00:05:57;38.13;;;20.48;;
9222;SDS011;7557;51.698;3.942;2023-05-10T00:08:25;39.85;;;20.75;;
9222;SDS011;7557;51.698;3.942;2023-05-10T00:10:52;37.00;;;19.60;;
9222;SDS011;7557;51.698;3.942;2023-05-10T00:13:19;39.90;;;19.05;;
9222;SDS011;7557;51.698;3.942;2023-05-10T00:15:46;46.03;;;22.85;;
9222;SDS011;7557;51.698;3.942;2023-05-10T00:18:14;39.03;;;21.30;;
9222;SDS011;7557;51.698;3.942;2023-05-10T00:20:41;38.07;;;20.10;;
9222;SDS011;7557;51.698;3.942;2023-05-10T00:23:09;46.15;;;21.45;;
9222;SDS011;7557;51.698;3.942;2023-05-10T00:25:37;40.50;;;20.58;;
9222;SDS011;7557;51.698;3.942;2023-05-10T00:28:04;41.80;;;20.05;;
9222;SDS011;7557;51.698;3.942;2023-05-10T00:30:31;39.22;;;18.75;;
9222;SDS011;7557;51.698;3.942;2023-05-10T00:32:58;41.40;;;20.00;;
9222;SDS011;7557;51.698;3.942;2023-05-10T00:35:25;38.58;;;20.17;;
9222;SDS011;7557;51.698;3.942;2023-05-10T00:37:53;42.58;;;20.35;;
9222;SDS011;7557;51.698;3.942;2023-05-10T00:40:22;35.33;;;20.55;;
9222;SDS011;7557;51.698;3.942;2023-05-10T00:42:49;38.80;;;21.02;;
9222;SDS011;7557;51.698;3.942;2023-05-10T00:45:16;41.88;;;20.90;;
9222;SDS011;7557;51.698;3.942;2023-05-10T00:51:00;41.78;;;19.15;;
9222;SDS011;7557;51.698;3.942;2023-05-10T00:53:28;35.90;;;19.85;;
9222;SDS011;7557;51.698;3.942;2023-05-10T00:55:59;38.60;;;18.30;;
9222;SDS011;7557;51.698;3.942;2023-05-10T00:58:28;42.70;;;19.38;;
9222;SDS011;7557;51.698;3.942;2023-05-10T01:00:56;35.88;;;18.35;;
9222;SDS011;7557;51.698;3.942;2023-05-10T01:03:24;35.20;;;19.02;;
9222;SDS011;7557;51.698;3.942;2023-05-10T01:05:51;39.03;;;18.52;;
9222;SDS011;7557;51.698;3.942;2023-05-10T01:08:19;41.63;;;18.55;;
9222;SDS011;7557;51.698;3.942;2023-05-10T01:10:46;37.97;;;18.73;;
9222;SDS011;7557;51.698;3.942;2023-05-10T01:13:16;36.00;;;18.43;;
9222;SDS011;7557;51.698;3.942;2023-05-10T01:15:48;32.72;;;17.17;;
9222;SDS011;7557;51.698;3.942;2023-05-10T01:18:16;32.43;;;17.23;;
9222;SDS011;7557;51.698;3.942;2023-05-10T01:20:47;30.75;;;16.25;;
9222;SDS011;7557;51.698;3.942;2023-05-10T01:23:29;26.13;;;14.70;;
9222;SDS011;7557;51.698;3.942;2023-05-10T01:26:12;27.30;;;15.67;;
9222;SDS011;7557;51.698;3.942;2023-05-10T01:34:45;34.50;;;16.67;;
9222;SDS011;7557;51.698;3.942;2023-05-10T01:37:20;28.75;;;18.20;;
9222;SDS011;7557;51.698;3.942;2023-05-10T01:39:55;31.55;;;18.48;;
9222;SDS011;7557;51.698;3.942;2023-05-10T01:42:28;31.20;;;19.40;;
9222;SDS011;7557;51.698;3.942;2023-05-10T01:45:05;30.40;;;19.42;;
9222;SDS011;7557;51.698;3.942;2023-05-10T01:47:46;33.85;;;19.65;;
9222;SDS011;7557;51.698;3.942;2023-05-10T01:50:22;35.00;;;22.83;;
9222;SDS011;7557;51.698;3.942;2023-05-10T01:52:54;35.47;;;22.25;;
9222;SDS011;7557;51.698;3.942;2023-05-10T01:55:24;32.97;;;21.83;;
9222;SDS011;7557;51.698;3.942;2023-05-10T01:57:55;40.33;;;24.77;;
9222;SDS011;7557;51.698;3.942;2023-05-10T02:00:29;34.55;;;22.15;;
9222;SDS011;7557;51.698;3.942;2023-05-10T02:02:59;42.35;;;27.13;;
9222;SDS011;7557;51.698;3.942;2023-05-10T02:05:30;36.78;;;26.92;;
9222;SDS011;7557;51.698;3.942;2023-05-10T02:08:01;44.08;;;28.25;;
9222;SDS011;7557;51.698;3.942;2023-05-10T02:10:32;44.63;;;29.90;;
9222;SDS011;7557;51.698;3.942;2023-05-10T02:13:02;48.53;;;32.20;;
9222;SDS011;7557;51.698;3.942;2023-05-10T02:15:32;45.38;;;30.83;;
9222;SDS011;7557;51.698;3.942;2023-05-10T02:18:02;44.83;;;30.77;;
9222;SDS011;7557;51.698;3.942;2023-05-10T02:20:31;38.63;;;28.63;;
9222;SDS011;7557;51.698;3.942;2023-05-10T02:23:01;42.33;;;29.35;;
9222;SDS011;7557;51.698;3.942;2023-05-10T02:25:30;44.72;;;28.50;;
9222;SDS011;7557;51.698;3.942;2023-05-10T02:27:59;42.03;;;29.65;;
9222;SDS011;7557;51.698;3.942;2023-05-10T02:30:31;43.92;;;29.05;;
9222;SDS011;7557;51.698;3.942;2023-05-10T02:33:00;44.30;;;30.90;;
9222;SDS011;7557;51.698;3.942;2023-05-10T02:35:30;46.42;;;32.30;;
9222;SDS011;7557;51.698;3.942;2023-05-10T02:37:58;54.33;;;36.30;;
9222;SDS011;7557;51.698;3.942;2023-05-10T02:40:27;54.35;;;37.90;;
9222;SDS011;7557;51.698;3.942;2023-05-10T02:42:55;50.85;;;33.70;;
9222;SDS011;7557;51.698;3.942;2023-05-10T02:45:26;52.45;;;35.42;;
9222;SDS011;7557;51.698;3.942;2023-05-10T02:47:55;57.75;;;37.40;;
9222;SDS011;7557;51.698;3.942;2023-05-10T02:50:25;51.53;;;35.00;;
9222;SDS011;7557;51.698;3.942;2023-05-10T02:52:56;54.53;;;37.97;;
9222;SDS011;7557;51.698;3.942;2023-05-10T02:55:27;52.27;;;39.43;;
9222;SDS011;7557;51.698;3.942;2023-05-10T02:58:00;59.95;;;40.40;;
9222;SDS011;7557;51.698;3.942;2023-05-10T03:00:28;55.67;;;41.03;;
9222;SDS011;7557;51.698;3.942;2023-05-10T03:02:55;46.87;;;36.90;;
9222;SDS011;7557;51.698;3.942;2023-05-10T03:05:22;51.33;;;37.70;;
9222;SDS011;7557;51.698;3.942;2023-05-10T03:07:51;51.03;;;36.83;;
9222;SDS011;7557;51.698;3.942;2023-05-10T03:10:19;43.25;;;34.97;;
9222;SDS011;7557;51.698;3.942;2023-05-10T03:12:52;43.20;;;33.47;;
9222;SDS011;7557;51.698;3.942;2023-05-10T03:15:39;35.97;;;26.60;;
9222;SDS011;7557;51.698;3.942;2023-05-10T03:18:15;33.13;;;23.55;;
9222;SDS011;7557;51.698;3.942;2023-05-10T03:20:50;25.57;;;20.87;;
9222;SDS011;7557;51.698;3.942;2023-05-10T03:23:26;23.90;;;19.25;;
9222;SDS011;7557;51.698;3.942;2023-05-10T03:25:56;22.70;;;17.80;;
9222;SDS011;7557;51.698;3.942;2023-05-10T03:28:24;24.48;;;18.75;;
9222;SDS011;7557;51.698;3.942;2023-05-10T03:30:52;23.98;;;18.08;;
9222;SDS011;7557;51.698;3.942;2023-05-10T03:33:20;25.70;;;19.92;;
9222;SDS011;7557;51.698;3.942;2023-05-10T03:35:49;27.38;;;21.00;;
9222;SDS011;7557;51.698;3.942;2023-05-10T03:38:16;23.73;;;19.05;;
9222;SDS011;7557;51.698;3.942;2023-05-10T03:40:44;27.63;;;19.13;;
9222;SDS011;7557;51.698;3.942;2023-05-10T03:43:11;25.92;;;16.17;;
9222;SDS011;7557;51.698;3.942;2023-05-10T03:45:38;22.20;;;14.33;;
9222;SDS011;7557;51.698;3.942;2023-05-10T03:48:05;20.23;;;12.97;;
9222;SDS011;7557;51.698;3.942;2023-05-10T03:50:32;17.77;;;11.13;;
9222;SDS011;7557;51.698;3.942;2023-05-10T03:53:01;16.08;;;10.50;;
9222;SDS011;7557;51.698;3.942;2023-05-10T03:55:28;13.63;;;9.57;;
9222;SDS011;7557;51.698;3.942;2023-05-10T03:57:59;13.23;;;8.43;;
9222;SDS011;7557;51.698;3.942;2023-05-10T04:00:26;9.43;;;8.30;;
9222;SDS011;7557;51.698;3.942;2023-05-10T04:02:54;19.13;;;8.63;;
9222;SDS011;7557;51.698;3.942;2023-05-10T04:05:21;13.25;;;7.38;;
9222;SDS011;7557;51.698;3.942;2023-05-10T04:07:48;9.88;;;6.38;;
9222;SDS011;7557;51.698;3.942;2023-05-10T04:10:17;10.57;;;6.55;;
9222;SDS011;7557;51.698;3.942;2023-05-10T04:12:45;5.90;;;5.30;;
9222;SDS011;7557;51.698;3.942;2023-05-10T04:15:13;7.13;;;5.10;;
9222;SDS011;7557;51.698;3.942;2023-05-10T04:17:40;8.93;;;5.78;;
9222;SDS011;7557;51.698;3.942;2023-05-10T04:20:07;11.10;;;5.65;;
9222;SDS011;7557;51.698;3.942;2023-05-10T04:22:35;15.07;;;6.30;;
9222;SDS011;7557;51.698;3.942;2023-05-10T04:25:03;11.63;;;6.38;;
9222;SDS011;7557;51.698;3.942;2023-05-10T04:27:33;8.50;;;5.88;;
9222;SDS011;7557;51.698;3.942;2023-05-10T04:30:01;13.50;;;5.72;;
9222;SDS011;7557;51.698;3.942;2023-05-10T04:32:29;11.27;;;5.72;;
9222;SDS011;7557;51.698;3.942;2023-05-10T04:34:56;5.80;;;4.20;;
9222;SDS011;7557;51.698;3.942;2023-05-10T04:37:23;7.05;;;4.68;;
9222;SDS011;7557;51.698;3.942;2023-05-10T04:39:51;9.05;;;4.40;;
9222;SDS011;7557;51.698;3.942;2023-05-10T04:42:18;8.32;;;4.38;;
9222;SDS011;7557;51.698;3.942;2023-05-10T04:44:46;10.50;;;4.93;;
9222;SDS011;7557;51.698;3.942;2023-05-10T04:47:14;8.20;;;4.50;;
9222;SDS011;7557;51.698;3.942;2023-05-10T04:49:41;6.85;;;5.20;;
9222;SDS011;7557;51.698;3.942;2023-05-10T04:52:08;5.05;;;4.55;;
9222;SDS011;7557;51.698;3.942;2023-05-10T04:54:36;9.70;;;4.82;;
9222;SDS011;7557;51.698;3.942;2023-05-10T04:57:03;13.23;;;5.83;;
9222;SDS011;7557;51.698;3.942;2023-05-10T04:59:30;7.75;;;5.18;;
9222;SDS011;7557;51.698;3.942;2023-05-10T05:01:59;10.20;;;5.70;;
9222;SDS011;7557;51.698;3.942;2023-05-10T05:04:26;6.72;;;5.57;;
9222;SDS011;7557;51.698;3.942;2023-05-10T05:06:54;8.43;;;5.55;;
9222;SDS011;7557;51.698;3.942;2023-05-10T05:09:21;7.75;;;5.80;;
9222;SDS011;7557;51.698;3.942;2023-05-10T05:11:48;8.02;;;6.22;;
9222;SDS011;7557;51.698;3.942;2023-05-10T05:14:15;8.05;;;6.30;;
9222;SDS011;7557;51.698;3.942;2023-05-10T05:16:42;8.60;;;6.47;;
9222;SDS011;7557;51.698;3.942;2023-05-10T05:19:11;10.85;;;7.13;;
9222;SDS011;7557;51.698;3.942;2023-05-10T05:21:39;11.20;;;7.20;;
9222;SDS011;7557;51.698;3.942;2023-05-10T05:24:09;12.50;;;8.02;;
9222;SDS011;7557;51.698;3.942;2023-05-10T05:26:37;9.43;;;6.75;;
9222;SDS011;7557;51.698;3.942;2023-05-10T05:29:05;8.32;;;5.85;;
9222;SDS011;7557;51.698;3.942;2023-05-10T05:31:32;10.82;;;6.82;;
9222;SDS011;7557;51.698;3.942;2023-05-10T05:33:59;10.05;;;6.72;;
9222;SDS011;7557;51.698;3.942;2023-05-10T05:36:28;6.95;;;6.32;;
9222;SDS011;7557;51.698;3.942;2023-05-10T05:38:55;8.02;;;7.30;;
9222;SDS011;7557;51.698;3.942;2023-05-10T05:41:23;9.35;;;6.95;;
9222;SDS011;7557;51.698;3.942;2023-05-10T05:43:50;8.75;;;6.80;;
9222;SDS011;7557;51.698;3.942;2023-05-10T05:46:17;8.50;;;7.70;;
9222;SDS011;7557;51.698;3.942;2023-05-10T05:48:44;7.72;;;6.95;;
9222;SDS011;7557;51.698;3.942;2023-05-10T05:51:11;9.98;;;8.20;;
9222;SDS011;7557;51.698;3.942;2023-05-10T05:53:40;11.02;;;8.10;;
9222;SDS011;7557;51.698;3.942;2023-05-10T05:56:07;9.43;;;7.43;;
9222;SDS011;7557;51.698;3.942;2023-05-10T05:58:35;8.23;;;7.50;;
9222;SDS011;7557;51.698;3.942;2023-05-10T06:01:02;8.25;;;7.45;;
9222;SDS011;7557;51.698;3.942;2023-05-10T06:03:29;9.82;;;7.50;;
9222;SDS011;7557;51.698;3.942;2023-05-10T06:05:56;10.70;;;7.85;;
9222;SDS011;7557;51.698;3.942;2023-05-10T06:08:23;8.82;;;8.02;;
9222;SDS011;7557;51.698;3.942;2023-05-10T06:10:52;8.27;;;7.47;;
9222;SDS011;7557;51.698;3.942;2023-05-10T06:13:19;10.65;;;8.18;;
9222;SDS011;7557;51.698;3.942;2023-05-10T06:15:46;8.48;;;7.30;;
9222;SDS011;7557;51.698;3.942;2023-05-10T06:18:14;8.05;;;7.40;;
9222;SDS011;7557;51.698;3.942;2023-05-10T06:20:41;12.25;;;7.88;;
9222;SDS011;7557;51.698;3.942;2023-05-10T06:23:08;7.55;;;6.80;;
9222;SDS011;7557;51.698;3.942;2023-05-10T06:25:36;8.48;;;7.70;;
9222;SDS011;7557;51.698;3.942;2023-05-10T06:28:04;8.60;;;7.85;;
9222;SDS011;7557;51.698;3.942;2023-05-10T06:30:31;8.52;;;7.70;;
9222;SDS011;7557;51.698;3.942;2023-05-10T06:32:59;8.15;;;7.43;;
9222;SDS011;7557;51.698;3.942;2023-05-10T06:35:26;7.85;;;6.93;;
9222;SDS011;7557;51.698;3.942;2023-05-10T06:37:54;6.88;;;6.38;;
9222;SDS011;7557;51.698;3.942;2023-05-10T06:40:21;7.00;;;6.40;;
9222;SDS011;7557;51.698;3.942;2023-05-10T06:42:49;7.03;;;6.28;;
9222;SDS011;7557;51.698;3.942;2023-05-10T06:45:17;7.05;;;6.55;;
9222;SDS011;7557;51.698;3.942;2023-05-10T06:47:45;7.38;;;6.25;;
9222;SDS011;7557;51.698;3.942;2023-05-10T06:50:12;7.03;;;6.50;;
9222;SDS011;7557;51.698;3.942;2023-05-10T06:52:39;5.93;;;5.43;;
9222;SDS011;7557;51.698;3.942;2023-05-10T06:55:07;7.65;;;5.65;;
9222;SDS011;7557;51.698;3.942;2023-05-10T06:57:35;7.82;;;5.55;;
9222;SDS011;7557;51.698;3.942;2023-05-10T07:00:02;6.30;;;5.70;;
9222;SDS011;7557;51.698;3.942;2023-05-10T07:02:32;8.23;;;6.43;;
9222;SDS011;7557;51.698;3.942;2023-05-10T07:05:00;5.18;;;4.78;;
9222;SDS011;7557;51.698;3.942;2023-05-10T07:07:27;5.57;;;5.07;;
9222;SDS011;7557;51.698;3.942;2023-05-10T07:09:55;6.97;;;6.20;;
9222;SDS011;7557;51.698;3.942;2023-05-10T07:12:22;5.50;;;5.10;;
9222;SDS011;7557;51.698;3.942;2023-05-10T07:14:50;6.68;;;6.10;;
9222;SDS011;7557;51.698;3.942;2023-05-10T07:17:17;6.45;;;5.95;;
9222;SDS011;7557;51.698;3.942;2023-05-10T07:19:46;5.93;;;5.45;;
9222;SDS011;7557;51.698;3.942;2023-05-10T07:22:13;5.53;;;5.13;;
9222;SDS011;7557;51.698;3.942;2023-05-10T07:24:42;6.15;;;5.65;;
9222;SDS011;7557;51.698;3.942;2023-05-10T07:27:09;6.80;;;6.28;;
9222;SDS011;7557;51.698;3.942;2023-05-10T07:29:37;5.70;;;5.20;;
9222;SDS011;7557;51.698;3.942;2023-05-10T07:32:05;5.95;;;4.57;;
9222;SDS011;7557;51.698;3.942;2023-05-10T07:34:32;4.57;;;4.32;;
9222;SDS011;7557;51.698;3.942;2023-05-10T07:37:01;4.68;;;4.22;;
9222;SDS011;7557;51.698;3.942;2023-05-10T07:39:28;4.70;;;4.25;;
9222;SDS011;7557;51.698;3.942;2023-05-10T07:41:56;3.80;;;3.60;;
9222;SDS011;7557;51.698;3.942;2023-05-10T07:44:23;3.47;;;3.20;;
9222;SDS011;7557;51.698;3.942;2023-05-10T07:46:50;3.83;;;3.35;;
9222;SDS011;7557;51.698;3.942;2023-05-10T07:49:17;3.72;;;3.42;;
9222;SDS011;7557;51.698;3.942;2023-05-10T07:51:45;8.35;;;4.30;;
9222;SDS011;7557;51.698;3.942;2023-05-10T07:54:13;4.45;;;4.03;;
9222;SDS011;7557;51.698;3.942;2023-05-10T07:56:41;4.93;;;4.38;;
9222;SDS011;7557;51.698;3.942;2023-05-10T07:59:14;3.72;;;3.33;;
9222;SDS011;7557;51.698;3.942;2023-05-10T08:01:41;4.10;;;3.65;;
9222;SDS011;7557;51.698;3.942;2023-05-10T08:04:09;4.40;;;4.00;;
9222;SDS011;7557;51.698;3.942;2023-05-10T08:06:36;7.07;;;4.55;;
9222;SDS011;7557;51.698;3.942;2023-05-10T08:09:04;5.45;;;4.30;;
9222;SDS011;7557;51.698;3.942;2023-05-10T08:11:33;4.15;;;3.78;;
9222;SDS011;7557;51.698;3.942;2023-05-10T08:14:00;5.13;;;4.00;;
9222;SDS011;7557;51.698;3.942;2023-05-10T08:16:27;3.90;;;3.63;;
9222;SDS011;7557;51.698;3.942;2023-05-10T08:18:55;4.90;;;4.25;;
9222;SDS011;7557;51.698;3.942;2023-05-10T08:21:22;4.03;;;3.65;;
9222;SDS011;7557;51.698;3.942;2023-05-10T08:23:49;4.28;;;3.53;;
9222;SDS011;7557;51.698;3.942;2023-05-10T08:26:16;4.13;;;3.72;;
9222;SDS011;7557;51.698;3.942;2023-05-10T08:28:45;4.50;;;3.47;;
9222;SDS011;7557;51.698;3.942;2023-05-10T08:31:12;5.07;;;4.05;;
9222;SDS011;7557;51.698;3.942;2023-05-10T08:33:39;3.58;;;3.28;;
9222;SDS011;7557;51.698;3.942;2023-05-10T08:36:07;3.92;;;3.55;;
9222;SDS011;7557;51.698;3.942;2023-05-10T08:38:34;3.72;;;3.40;;
9222;SDS011;7557;51.698;3.942;2023-05-10T08:41:02;4.15;;;3.75;;
9222;SDS011;7557;51.698;3.942;2023-05-10T08:43:29;4.45;;;3.25;;
9222;SDS011;7557;51.698;3.942;2023-05-10T08:46:00;5.63;;;3.58;;
9222;SDS011;7557;51.698;3.942;2023-05-10T08:48:28;3.95;;;3.65;;
9222;SDS011;7557;51.698;3.942;2023-05-10T08:50:56;3.67;;;3.47;;
9222;SDS011;7557;51.698;3.942;2023-05-10T08:53:25;4.50;;;4.10;;
9222;SDS011;7557;51.698;3.942;2023-05-10T08:55:55;4.05;;;3.85;;
9222;SDS011;7557;51.698;3.942;2023-05-10T08:58:22;3.78;;;3.55;;
9222;SDS011;7557;51.698;3.942;2023-05-10T09:00:50;3.67;;;3.42;;
9222;SDS011;7557;51.698;3.942;2023-05-10T09:03:19;3.78;;;3.55;;
9222;SDS011;7557;51.698;3.942;2023-05-10T09:05:46;4.03;;;3.80;;
9222;SDS011;7557;51.698;3.942;2023-05-10T09:08:13;3.75;;;3.45;;
9222;SDS011;7557;51.698;3.942;2023-05-10T09:10:42;5.55;;;3.65;;
9222;SDS011;7557;51.698;3.942;2023-05-10T09:13:12;3.55;;;3.25;;
9222;SDS011;7557;51.698;3.942;2023-05-10T09:15:43;3.90;;;3.55;;
9222;SDS011;7557;51.698;3.942;2023-05-10T09:18:12;3.83;;;3.53;;
9222;SDS011;7557;51.698;3.942;2023-05-10T09:20:41;6.65;;;3.83;;
9222;SDS011;7557;51.698;3.942;2023-05-10T09:23:09;4.10;;;3.80;;
9222;SDS011;7557;51.698;3.942;2023-05-10T09:25:36;4.28;;;2.97;;
9222;SDS011;7557;51.698;3.942;2023-05-10T09:28:06;3.92;;;3.65;;
9222;SDS011;7557;51.698;3.942;2023-05-10T09:30:33;3.80;;;3.40;;
9222;SDS011;7557;51.698;3.942;2023-05-10T09:33:01;3.40;;;3.10;;
9222;SDS011;7557;51.698;3.942;2023-05-10T09:35:29;4.05;;;3.75;;
9222;SDS011;7557;51.698;3.942;2023-05-10T09:38:00;4.47;;;3.53;;
9222;SDS011;7557;51.698;3.942;2023-05-10T09:40:29;3.35;;;3.05;;
9222;SDS011;7557;51.698;3.942;2023-05-10T09:42:57;5.72;;;3.40;;
9222;SDS011;7557;51.698;3.942;2023-05-10T09:45:26;2.72;;;2.63;;
9222;SDS011;7557;51.698;3.942;2023-05-10T09:47:54;3.60;;;3.22;;
9222;SDS011;7557;51.698;3.942;2023-05-10T09:50:22;3.80;;;3.42;;
9222;SDS011;7557;51.698;3.942;2023-05-10T09:52:50;2.70;;;2.50;;
9222;SDS011;7557;51.698;3.942;2023-05-10T09:55:21;3.28;;;2.90;;
9222;SDS011;7557;51.698;3.942;2023-05-10T09:57:50;2.90;;;2.70;;
9222;SDS011;7557;51.698;3.942;2023-05-10T10:00:26;2.70;;;2.50;;
9222;SDS011;7557;51.698;3.942;2023-05-10T10:02:54;2.47;;;2.08;;
9222;SDS011;7557;51.698;3.942;2023-05-10T10:05:27;3.05;;;2.53;;
9222;SDS011;7557;51.698;3.942;2023-05-10T10:07:55;1.80;;;1.70;;
9222;SDS011;7557;51.698;3.942;2023-05-10T10:10:25;2.40;;;2.20;;
9222;SDS011;7557;51.698;3.942;2023-05-10T10:12:53;1.70;;;1.60;;
9222;SDS011;7557;51.698;3.942;2023-05-10T10:15:21;1.92;;;1.80;;
9222;SDS011;7557;51.698;3.942;2023-05-10T10:17:49;2.55;;;1.63;;
9222;SDS011;7557;51.698;3.942;2023-05-10T10:20:17;3.45;;;2.38;;
9222;SDS011;7557;51.698;3.942;2023-05-10T10:22:46;2.38;;;2.17;;
9222;SDS011;7557;51.698;3.942;2023-05-10T10:25:14;2.20;;;2.00;;
9222;SDS011;7557;51.698;3.942;2023-05-10T10:27:45;2.25;;;2.15;;
9222;SDS011;7557;51.698;3.942;2023-05-10T10:30:25;3.35;;;1.95;;
9222;SDS011;7557;51.698;3.942;2023-05-10T10:33:10;2.40;;;2.30;;
9222;SDS011;7557;51.698;3.942;2023-05-10T10:35:55;3.10;;;2.78;;
9222;SDS011;7557;51.698;3.942;2023-05-10T10:38:24;3.83;;;2.30;;
9222;SDS011;7557;51.698;3.942;2023-05-10T10:41:01;5.07;;;3.38;;
9222;SDS011;7557;51.698;3.942;2023-05-10T10:43:31;2.65;;;2.45;;
9222;SDS011;7557;51.698;3.942;2023-05-10T10:46:09;2.67;;;2.50;;
9222;SDS011;7557;51.698;3.942;2023-05-10T10:48:38;4.22;;;3.92;;
9222;SDS011;7557;51.698;3.942;2023-05-10T10:51:05;3.47;;;3.17;;
9222;SDS011;7557;51.698;3.942;2023-05-10T10:53:33;3.97;;;3.67;;
9222;SDS011;7557;51.698;3.942;2023-05-10T10:56:06;3.85;;;3.55;;
9222;SDS011;7557;51.698;3.942;2023-05-10T10:58:37;3.15;;;2.92;;
9222;SDS011;7557;51.698;3.942;2023-05-10T11:01:12;4.00;;;3.70;;
9222;SDS011;7557;51.698;3.942;2023-05-10T11:03:41;3.45;;;3.13;;
9222;SDS011;7557;51.698;3.942;2023-05-10T11:06:41;3.47;;;3.17;;
9222;SDS011;7557;51.698;3.942;2023-05-10T11:09:10;4.22;;;3.92;;
9222;SDS011;7557;51.698;3.942;2023-05-10T11:11:48;3.55;;;3.45;;
9222;SDS011;7557;51.698;3.942;2023-05-10T11:14:21;3.20;;;2.83;;
9222;SDS011;7557;51.698;3.942;2023-05-10T11:16:48;6.78;;;3.55;;
9222;SDS011;7557;51.698;3.942;2023-05-10T11:19:16;2.75;;;2.55;;
9222;SDS011;7557;51.698;3.942;2023-05-10T11:21:45;3.13;;;2.92;;
9222;SDS011;7557;51.698;3.942;2023-05-10T11:24:13;2.67;;;2.58;;
9222;SDS011;7557;51.698;3.942;2023-05-10T11:26:41;3.50;;;3.17;;
9222;SDS011;7557;51.698;3.942;2023-05-10T11:29:09;4.47;;;3.10;;
9222;SDS011;7557;51.698;3.942;2023-05-10T11:31:42;4.15;;;3.83;;
9222;SDS011;7557;51.698;3.942;2023-05-10T11:34:11;4.18;;;3.88;;
9222;SDS011;7557;51.698;3.942;2023-05-10T11:36:50;4.65;;;4.35;;
9222;SDS011;7557;51.698;3.942;2023-05-10T11:39:18;4.68;;;4.28;;
9222;SDS011;7557;51.698;3.942;2023-05-10T11:41:48;5.30;;;4.90;;
9222;SDS011;7557;51.698;3.942;2023-05-10T11:44:15;5.40;;;5.03;;
9222;SDS011;7557;51.698;3.942;2023-05-10T11:46:44;4.85;;;4.45;;
9222;SDS011;7557;51.698;3.942;2023-05-10T11:49:11;5.00;;;4.43;;
9222;SDS011;7557;51.698;3.942;2023-05-10T11:51:39;5.28;;;4.88;;
9222;SDS011;7557;51.698;3.942;2023-05-10T11:54:09;5.38;;;4.88;;
9222;SDS011;7557;51.698;3.942;2023-05-10T11:56:37;5.13;;;4.60;;
9222;SDS011;7557;51.698;3.942;2023-05-10T11:59:05;5.25;;;4.85;;
9222;SDS011;7557;51.698;3.942;2023-05-10T12:01:33;7.00;;;6.28;;
9222;SDS011;7557;51.698;3.942;2023-05-10T12:04:02;6.05;;;5.57;;
9222;SDS011;7557;51.698;3.942;2023-05-10T12:06:30;6.05;;;5.40;;
9222;SDS011;7557;51.698;3.942;2023-05-10T12:08:59;7.07;;;5.80;;
9222;SDS011;7557;51.698;3.942;2023-05-10T12:11:31;5.97;;;5.47;;
9222;SDS011;7557;51.698;3.942;2023-05-10T12:14:03;5.90;;;5.40;;
9222;SDS011;7557;51.698;3.942;2023-05-10T12:16:31;5.80;;;5.40;;
9222;SDS011;7557;51.698;3.942;2023-05-10T12:18:59;5.93;;;5.43;;
9222;SDS011;7557;51.698;3.942;2023-05-10T12:21:29;5.95;;;5.45;;
9222;SDS011;7557;51.698;3.942;2023-05-10T12:23:59;6.75;;;6.10;;
9222;SDS011;7557;51.698;3.942;2023-05-10T12:26:28;6.50;;;6.00;;
9222;SDS011;7557;51.698;3.942;2023-05-10T12:29:01;6.55;;;5.95;;
9222;SDS011;7557;51.698;3.942;2023-05-10T12:31:48;8.80;;;7.22;;
9222;SDS011;7557;51.698;3.942;2023-05-10T12:34:24;10.02;;;7.43;;
9222;SDS011;7557;51.698;3.942;2023-05-10T12:36:52;8.23;;;7.43;;
9222;SDS011;7557;51.698;3.942;2023-05-10T12:39:20;11.23;;;8.38;;
9222;SDS011;7557;51.698;3.942;2023-05-10T12:41:47;9.93;;;7.95;;
9222;SDS011;7557;51.698;3.942;2023-05-10T12:44:15;10.32;;;8.13;;
9222;SDS011;7557;51.698;3.942;2023-05-10T12:46:42;9.18;;;8.38;;
9222;SDS011;7557;51.698;3.942;2023-05-10T12:49:09;11.18;;;8.63;;
9222;SDS011;7557;51.698;3.942;2023-05-10T12:51:38;8.77;;;7.97;;
9222;SDS011;7557;51.698;3.942;2023-05-10T12:54:05;13.00;;;8.80;;
9222;SDS011;7557;51.698;3.942;2023-05-10T12:56:32;12.88;;;8.43;;
9222;SDS011;7557;51.698;3.942;2023-05-10T12:58:59;12.57;;;8.32;;
9222;SDS011;7557;51.698;3.942;2023-05-10T13:01:27;12.43;;;9.32;;
9222;SDS011;7557;51.698;3.942;2023-05-10T13:03:55;11.95;;;9.45;;
9222;SDS011;7557;51.698;3.942;2023-05-10T13:06:23;9.02;;;8.05;;
9222;SDS011;7557;51.698;3.942;2023-05-10T13:08:52;10.15;;;9.25;;
9222;SDS011;7557;51.698;3.942;2023-05-10T13:11:19;12.40;;;8.82;;
9222;SDS011;7557;51.698;3.942;2023-05-10T13:13:47;12.98;;;10.23;;
9222;SDS011;7557;51.698;3.942;2023-05-10T13:16:14;11.65;;;10.45;;
9222;SDS011;7557;51.698;3.942;2023-05-10T13:18:41;13.13;;;9.70;;
9222;SDS011;7557;51.698;3.942;2023-05-10T13:21:08;12.18;;;10.43;;
9222;SDS011;7557;51.698;3.942;2023-05-10T13:23:36;11.82;;;10.15;;
9222;SDS011;7557;51.698;3.942;2023-05-10T13:26:05;16.25;;;11.15;;
9222;SDS011;7557;51.698;3.942;2023-05-10T13:28:32;17.88;;;11.20;;
9222;SDS011;7557;51.698;3.942;2023-05-10T13:31:00;14.05;;;11.05;;
9222;SDS011;7557;51.698;3.942;2023-05-10T13:33:27;16.02;;;13.07;;
9222;SDS011;7557;51.698;3.942;2023-05-10T13:35:55;15.07;;;11.05;;
9222;SDS011;7557;51.698;3.942;2023-05-10T13:38:23;12.60;;;11.13;;
9222;SDS011;7557;51.698;3.942;2023-05-10T13:40:50;12.50;;;10.88;;
9222;SDS011;7557;51.698;3.942;2023-05-10T13:43:19;16.05;;;12.82;;
9222;SDS011;7557;51.698;3.942;2023-05-10T13:45:47;18.60;;;12.43;;
9222;SDS011;7557;51.698;3.942;2023-05-10T13:48:15;16.60;;;12.98;;
9222;SDS011;7557;51.698;3.942;2023-05-10T13:50:43;16.13;;;13.27;;
9222;SDS011;7557;51.698;3.942;2023-05-10T13:53:11;19.17;;;13.82;;
9222;SDS011;7557;51.698;3.942;2023-05-10T13:55:39;16.33;;;12.95;;
9222;SDS011;7557;51.698;3.942;2023-05-10T13:58:07;20.52;;;14.60;;
9222;SDS011;7557;51.698;3.942;2023-05-10T14:00:36;16.85;;;12.57;;
9222;SDS011;7557;51.698;3.942;2023-05-10T14:03:03;17.35;;;13.07;;
9222;SDS011;7557;51.698;3.942;2023-05-10T14:05:34;21.80;;;14.05;;
9222;SDS011;7557;51.698;3.942;2023-05-10T14:08:02;17.10;;;13.43;;
9222;SDS011;7557;51.698;3.942;2023-05-10T14:10:30;21.38;;;14.27;;
9222;SDS011;7557;51.698;3.942;2023-05-10T14:12:57;22.60;;;15.48;;
9222;SDS011;7557;51.698;3.942;2023-05-10T14:15:25;20.13;;;14.10;;
9222;SDS011;7557;51.698;3.942;2023-05-10T14:17:53;19.85;;;14.70;;
9222;SDS011;7557;51.698;3.942;2023-05-10T14:20:21;22.55;;;14.10;;
9222;SDS011;7557;51.698;3.942;2023-05-10T14:22:48;24.48;;;14.35;;
9222;SDS011;7557;51.698;3.942;2023-05-10T14:25:17;22.02;;;14.27;;
9222;SDS011;7557;51.698;3.942;2023-05-10T14:27:45;18.48;;;13.82;;
9222;SDS011;7557;51.698;3.942;2023-05-10T14:30:13;19.10;;;14.02;;
9222;SDS011;7557;51.698;3.942;2023-05-10T14:32:42;20.85;;;13.98;;
9222;SDS011;7557;51.698;3.942;2023-05-10T14:35:12;20.60;;;14.10;;
9222;SDS011;7557;51.698;3.942;2023-05-10T14:37:39;19.83;;;14.10;;
9222;SDS011;7557;51.698;3.942;2023-05-10T14:40:08;18.27;;;13.27;;
9222;SDS011;7557;51.698;3.942;2023-05-10T14:42:36;18.25;;;12.95;;
9222;SDS011;7557;51.698;3.942;2023-05-10T14:45:04;16.13;;;11.75;;
9222;SDS011;7557;51.698;3.942;2023-05-10T14:47:32;15.18;;;12.30;;
9222;SDS011;7557;51.698;3.942;2023-05-10T14:49:59;14.98;;;12.18;;
9222;SDS011;7557;51.698;3.942;2023-05-10T14:52:28;14.90;;;12.98;;
9222;SDS011;7557;51.698;3.942;2023-05-10T14:54:56;15.40;;;12.40;;
9222;SDS011;7557;51.698;3.942;2023-05-10T14:57:25;13.93;;;12.48;;
9222;SDS011;7557;51.698;3.942;2023-05-10T14:59:54;15.13;;;11.55;;
9222;SDS011;7557;51.698;3.942;2023-05-10T15:02:22;13.32;;;11.93;;
9222;SDS011;7557;51.698;3.942;2023-05-10T15:04:49;14.43;;;12.98;;
9222;SDS011;7557;51.698;3.942;2023-05-10T15:07:17;15.30;;;12.10;;
9222;SDS011;7557;51.698;3.942;2023-05-10T15:09:46;15.85;;;12.18;;
9222;SDS011;7557;51.698;3.942;2023-05-10T15:12:13;13.60;;;11.98;;
9222;SDS011;7557;51.698;3.942;2023-05-10T15:14:40;13.32;;;11.95;;
9222;SDS011;7557;51.698;3.942;2023-05-10T15:17:07;12.98;;;11.68;;
9222;SDS011;7557;51.698;3.942;2023-05-10T15:19:35;14.50;;;12.10;;
9222;SDS011;7557;51.698;3.942;2023-05-10T15:22:03;14.45;;;12.30;;